Itapeva, Brazil
Current Conditions -  °F | °C
As of 3:00 PM on Friday 31 Oct 2014 (Local Time) from SBSJ Reporting Station
Broken Clouds Broken Clouds  
Wind Chill: 95°   Ceiling: 3000
Heat Index: 95°   Visibility: 6mi
Dew Point: 55°   Wind: 6mph
Humidity: 26%   Direction: 300°WNW
Pressure: 29.91"   Gusts: NA
Location:  22.77°S, 46.22°W
Report Text: SBSJ 311700Z 30005KT 9999 BKN030 SCT070 35/13 Q1013
Loading
Personal Weather Stations






























Interactive Weather Map
Tropical Storm Tracking
New forecast layout! Learn more

10-Day Weather Forecast

Advertisements
Track Severe Weather on mobile